Time;durP1;ratioP1;P1;durP2;ratioP2;P2;SDS_P1;SDS_P2;PMS_P1;PMS_P2;Temp;Humidity;BMP_temperature;BMP_pressure;BME280_temperature;BME280_humidity;BME280_pressure;Samples;Min_cycle;Max_cycle;Signal;HPM_P1;HPM_P2
2023/03/31 00:01:40;;;;;;;;;2.33;0.00;;;;;23.12;40.64;100052.97;5077707;28;45340;-82
2023/03/31 00:04:08;;;;;;;;;3.00;0.33;;;;;23.10;39.95;100028.50;5077318;27;46286;-82
2023/03/31 00:06:37;;;;;;;;;4.33;1.33;;;;;23.11;40.02;100021.34;5077143;28;45453;-81
2023/03/31 00:09:11;;;;;;;;;1.00;0.00;;;;;23.11;40.59;100053.19;5077662;27;45369;-82
2023/03/31 00:11:38;;;;;;;;;0.00;0.00;;;;;23.10;40.60;100044.41;5077437;27;45516;-83
2023/03/31 00:14:06;;;;;;;;;1.00;1.00;;;;;22.96;40.33;99998.50;5076784;28;45504;-82
2023/03/31 00:16:32;;;;;;;;;0.00;0.00;;;;;23.11;40.26;100010.75;5076380;27;45429;-82
2023/03/31 00:18:57;;;;;;;;;1.67;0.00;;;;;23.05;40.59;100002.59;5077507;28;45357;-82
2023/03/31 00:21:23;;;;;;;;;0.00;0.00;;;;;23.08;39.99;100001.34;5077177;28;45364;-81
2023/03/31 00:23:54;;;;;;;;;2.00;0.00;;;;;23.05;40.43;99991.97;5076877;27;46541;-82
2023/03/31 00:26:21;;;;;;;;;3.00;2.00;;;;;23.07;40.19;100021.75;5077244;27;45331;-83
2023/03/31 00:28:46;;;;;;;;;0.33;0.00;;;;;23.06;40.54;100027.25;5076881;28;45384;-83
2023/03/31 00:31:12;;;;;;;;;1.00;1.00;;;;;23.06;40.16;99975.00;5076958;28;45338;-83
2023/03/31 00:33:37;;;;;;;;;2.00;0.00;;;;;23.02;40.02;99962.38;5077025;27;46176;-82
2023/03/31 00:36:04;;;;;;;;;2.00;0.00;;;;;23.05;40.11;99946.88;5076697;27;45293;-82
2023/03/31 00:38:31;;;;;;;;;1.33;0.00;;;;;23.02;40.52;99934.03;5077287;27;45395;-83
2023/03/31 00:40:57;;;;;;;;;1.67;1.00;;;;;22.94;40.49;99920.97;5076676;28;45593;-83
2023/03/31 00:43:37;;;;;;;;;0.00;0.00;;;;;23.02;40.22;99919.94;5076197;28;47046;-82
2023/03/31 00:46:18;;;;;;;;;3.00;1.00;;;;;23.00;39.98;99916.69;5076654;28;45439;-82
2023/03/31 00:48:56;;;;;;;;;0.67;0.00;;;;;23.02;40.38;99922.59;5076534;27;45269;-82
2023/03/31 00:51:25;;;;;;;;;2.00;0.00;;;;;22.94;40.03;99899.75;5076401;27;45310;-83
2023/03/31 00:53:58;;;;;;;;;1.00;1.00;;;;;22.91;39.91;99897.53;5075239;28;47536;-82
2023/03/31 00:56:27;;;;;;;;;0.00;0.00;;;;;23.02;40.46;99906.66;5076673;27;45292;-82
2023/03/31 00:58:56;;;;;;;;;1.00;0.33;;;;;22.91;39.94;99882.44;5076289;28;45290;-83
2023/03/31 01:01:23;;;;;;;;;0.00;0.00;;;;;22.90;39.77;99862.22;5076444;27;45338;-82
2023/03/31 01:03:49;;;;;;;;;0.33;0.33;;;;;22.72;39.75;99823.13;5076457;27;46007;-82
2023/03/31 01:06:18;;;;;;;;;0.67;0.00;;;;;22.98;40.09;99863.81;5076368;28;45307;-82
2023/03/31 01:08:46;;;;;;;;;0.00;0.00;;;;;22.91;40.08;99847.94;5076617;27;45265;-82
2023/03/31 01:11:15;;;;;;;;;1.00;1.00;;;;;23.02;39.95;99843.00;5076427;28;45384;-82
2023/03/31 01:13:41;;;;;;;;;1.33;0.00;;;;;23.03;39.87;99844.66;5075822;27;46341;-82
2023/03/31 01:16:06;;;;;;;;;2.67;1.00;;;;;22.99;40.21;99836.28;5076501;28;45412;-82
2023/03/31 01:18:35;;;;;;;;;0.00;0.00;;;;;22.96;40.12;99810.19;5076722;28;45327;-82
2023/03/31 01:21:06;;;;;;;;;1.00;0.00;;;;;23.02;39.62;99819.13;5076497;27;45935;-81
2023/03/31 01:23:45;;;;;;;;;1.67;1.00;;;;;23.02;39.73;99811.16;5076129;27;46374;-81
2023/03/31 01:26:17;;;;;;;;;0.00;0.00;;;;;23.02;39.77;99811.16;5074434;28;45587;-82
2023/03/31 01:29:17;;;;;;;;;1.00;0.00;;;;;23.00;39.74;99797.31;5076079;28;45457;-82
2023/03/31 01:32:15;;;;;;;;;0.33;0.00;;;;;22.98;39.95;99788.75;5076077;27;45267;-82
2023/03/31 01:34:59;;;;;;;;;1.00;0.00;;;;;22.99;39.71;99788.53;5076027;28;46424;-82
2023/03/31 01:37:43;;;;;;;;;0.00;0.00;;;;;22.98;39.68;99794.84;5075744;28;45344;-82
2023/03/31 01:40:49;;;;;;;;;0.67;0.67;;;;;22.98;39.60;99789.56;5075901;28;45459;-82
2023/03/31 01:43:29;;;;;;;;;0.67;0.00;;;;;22.99;40.18;99771.81;5073623;28;45646;-81
2023/03/31 01:46:27;;;;;;;;;0.67;0.00;;;;;22.98;40.20;99764.88;5073360;28;46055;-82
2023/03/31 01:49:01;;;;;;;;;0.00;0.00;;;;;22.96;39.99;99759.78;5073519;28;45215;-81
2023/03/31 01:51:52;;;;;;;;;0.00;0.00;;;;;22.83;40.10;99728.84;5073582;28;45429;-82
2023/03/31 01:54:38;;;;;;;;;0.00;0.00;;;;;22.94;39.68;99746.75;5073616;28;45559;-83
2023/03/31 01:57:06;;;;;;;;;0.00;0.00;;;;;22.95;39.73;99747.56;5073042;27;46569;-82
2023/03/31 01:59:31;;;;;;;;;0.00;0.00;;;;;22.94;39.88;99736.13;5073571;28;45491;-83
2023/03/31 02:02:03;;;;;;;;;1.00;1.00;;;;;22.87;39.97;99723.94;5056664;28;45423;-82
2023/03/31 02:04:43;;;;;;;;;0.00;0.00;;;;;22.94;39.93;99724.69;5073701;28;45385;-82
2023/03/31 02:07:17;;;;;;;;;1.00;1.00;;;;;22.89;40.05;99717.38;5073375;28;46923;-81
2023/03/31 02:09:52;;;;;;;;;3.33;0.67;;;;;22.92;40.23;99708.19;5072805;28;45519;-82
2023/03/31 02:12:23;;;;;;;;;0.00;0.00;;;;;22.88;39.75;99704.31;5073365;28;45293;-82
2023/03/31 02:14:51;;;;;;;;;0.00;0.00;;;;;22.87;40.39;99690.28;5073367;28;45517;-82
2023/03/31 02:17:21;;;;;;;;;0.00;0.00;;;;;22.85;39.88;99669.25;5074457;28;45376;-83
2023/03/31 02:19:52;;;;;;;;;0.33;0.00;;;;;22.94;40.24;99700.84;5075453;28;45349;-82
2023/03/31 02:22:20;;;;;;;;;0.00;0.00;;;;;22.94;39.88;99693.69;5075708;27;45305;-82
2023/03/31 02:24:47;;;;;;;;;0.00;0.00;;;;;22.94;40.14;99685.72;5075081;28;45499;-81
2023/03/31 02:27:21;;;;;;;;;0.00;0.00;;;;;22.94;39.50;99676.97;5075327;27;46498;-82
2023/03/31 02:29:47;;;;;;;;;0.00;0.00;;;;;22.89;39.53;99667.00;5075277;27;45350;-82
2023/03/31 02:32:35;;;;;;;;;0.00;0.00;;;;;22.95;39.63;99670.63;5075320;27;45430;-82
2023/03/31 02:35:01;;;;;;;;;1.00;0.00;;;;;22.85;39.84;99655.19;5075688;28;45381;-82
2023/03/31 02:37:29;;;;;;;;;0.00;0.00;;;;;22.89;39.66;99652.91;5075036;28;46231;-82
2023/03/31 02:39:57;;;;;;;;;0.00;0.00;;;;;22.93;39.55;99662.06;5076404;28;45366;-82
2023/03/31 02:42:23;;;;;;;;;0.00;0.00;;;;;22.95;40.07;99663.47;5078855;28;45279;-82
2023/03/31 02:44:49;;;;;;;;;0.33;0.33;;;;;22.96;39.84;99657.16;5078605;28;45317;-82
2023/03/31 02:47:18;;;;;;;;;0.00;0.00;;;;;22.87;39.60;99633.78;5078755;27;45273;-82
2023/03/31 02:49:52;;;;;;;;;0.00;0.00;;;;;22.83;40.00;99623.59;5078819;28;45508;-83
2023/03/31 02:53:05;;;;;;;;;1.67;0.00;;;;;22.97;39.84;99647.34;5078594;27;45350;-82
2023/03/31 02:56:06;;;;;;;;;1.00;0.00;;;;;22.95;40.15;99625.56;5055383;28;45282;-83
2023/03/31 02:58:50;;;;;;;;;1.33;0.00;;;;;22.95;39.69;99622.91;5055313;28;45377;-82
2023/03/31 03:01:26;;;;;;;;;1.00;0.00;;;;;22.93;39.71;99617.78;5055808;28;45471;-83
2023/03/31 03:04:08;;;;;;;;;0.67;0.00;;;;;22.89;39.81;99613.13;5055639;28;45422;-83
2023/03/31 03:06:43;;;;;;;;;0.00;0.00;;;;;22.93;40.14;99607.19;5055841;28;45494;-82
2023/03/31 03:09:47;;;;;;;;;0.00;0.00;;;;;22.92;39.99;99616.19;5055383;28;47521;-83
2023/03/31 03:12:21;;;;;;;;;0.00;0.00;;;;;22.92;39.70;99612.72;4956522;28;45521;-82
2023/03/31 03:15:05;;;;;;;;;0.33;0.00;;;;;22.92;39.76;99613.53;4956738;28;45386;-83
2023/03/31 03:17:43;;;;;;;;;3.00;0.00;;;;;22.84;39.66;99593.41;4956776;28;45419;-83
2023/03/31 03:20:09;;;;;;;;;0.67;0.00;;;;;22.82;39.72;99592.78;4956362;28;45388;-82
2023/03/31 03:22:39;;;;;;;;;0.00;0.00;;;;;22.91;40.05;99595.97;4956202;28;45444;-82
2023/03/31 03:25:08;;;;;;;;;0.67;0.00;;;;;22.88;39.73;99583.16;4956538;28;45317;-83
2023/03/31 03:27:34;;;;;;;;;0.67;0.00;;;;;22.90;39.78;99593.56;4975976;28;45493;-83
2023/03/31 03:30:01;;;;;;;;;0.00;0.00;;;;;22.82;39.77;99566.25;4975953;28;46113;-83
2023/03/31 03:32:26;;;;;;;;;2.00;0.33;;;;;22.86;39.64;99566.66;4975874;28;45541;-83
2023/03/31 03:34:52;;;;;;;;;0.67;0.67;;;;;22.82;39.54;99552.22;4976035;28;45361;-83
2023/03/31 03:37:17;;;;;;;;;0.00;0.00;;;;;22.84;39.75;99566.06;4975472;28;45411;-84
2023/03/31 03:39:42;;;;;;;;;0.00;0.00;;;;;22.87;39.89;99570.13;4975880;28;45367;-83
2023/03/31 03:42:08;;;;;;;;;0.00;0.00;;;;;22.90;39.88;99570.47;4975793;28;45570;-83
2023/03/31 03:44:33;;;;;;;;;0.67;0.00;;;;;22.83;39.74;99561.78;4975860;28;45405;-83
2023/03/31 03:46:59;;;;;;;;;0.00;0.00;;;;;22.89;39.84;99566.22;4975772;28;45515;-83
2023/03/31 03:49:24;;;;;;;;;0.00;0.00;;;;;22.74;40.03;99540.81;5029912;28;46132;-83
2023/03/31 03:51:50;;;;;;;;;1.00;0.00;;;;;22.91;40.05;99564.16;5076091;28;45302;-83
2023/03/31 03:54:15;;;;;;;;;0.00;0.00;;;;;22.81;40.04;99547.94;5077650;28;45232;-83
2023/03/31 03:56:41;;;;;;;;;0.00;0.00;;;;;22.90;39.64;99551.13;5077730;28;45329;-83
2023/03/31 03:59:06;;;;;;;;;1.00;0.00;;;;;22.69;39.99;99518.63;5077623;27;45390;-83
2023/03/31 04:01:31;;;;;;;;;0.00;0.00;;;;;22.92;39.85;99547.22;5077506;28;45467;-83
2023/03/31 04:03:57;;;;;;;;;1.00;1.00;;;;;22.92;39.90;99541.09;5077517;28;45480;-82
2023/03/31 04:06:22;;;;;;;;;0.00;0.00;;;;;22.93;39.37;99537.41;5077147;28;45401;-83
2023/03/31 04:08:47;;;;;;;;;0.00;0.00;;;;;22.92;39.28;99541.94;5077445;28;46157;-83
2023/03/31 04:11:16;;;;;;;;;0.00;0.00;;;;;22.94;39.30;99539.84;5077217;28;45342;-83
2023/03/31 04:13:43;;;;;;;;;0.00;0.00;;;;;22.85;39.24;99526.06;5076245;28;45313;-82
2023/03/31 04:16:08;;;;;;;;;0.00;0.00;;;;;22.80;39.74;99512.63;5077233;27;45369;-83
2023/03/31 04:18:36;;;;;;;;;0.00;0.00;;;;;22.93;39.81;99542.72;5077240;27;45330;-83
2023/03/31 04:21:02;;;;;;;;;2.00;1.00;;;;;22.89;39.89;99529.09;5076740;27;45369;-82
2023/03/31 04:23:32;;;;;;;;;0.00;0.00;;;;;22.93;39.50;99542.72;5077080;27;45399;-82
2023/03/31 04:25:57;;;;;;;;;1.00;1.00;;;;;22.85;39.75;99522.59;5077184;27;45444;-83
2023/03/31 04:28:25;;;;;;;;;1.00;0.00;;;;;22.83;39.26;99509.56;5076894;28;46387;-83
2023/03/31 04:30:53;;;;;;;;;0.00;0.00;;;;;22.93;39.77;99524.97;5077088;27;45283;-83
2023/03/31 04:33:20;;;;;;;;;1.00;1.00;;;;;22.91;39.17;99512.94;5077156;28;45234;-82
2023/03/31 04:35:48;;;;;;;;;1.00;0.00;;;;;22.93;39.82;99530.25;5076884;27;45537;-82
2023/03/31 04:38:17;;;;;;;;;3.00;0.00;;;;;22.88;39.79;99510.72;5076510;27;46604;-82
2023/03/31 04:40:44;;;;;;;;;0.00;0.00;;;;;22.93;39.91;99516.19;5076793;28;45370;-82
2023/03/31 04:43:09;;;;;;;;;1.33;0.67;;;;;22.93;39.43;99522.31;5076927;27;45398;-82
2023/03/31 04:45:35;;;;;;;;;1.00;1.00;;;;;22.93;39.38;99521.50;5076820;27;45366;-82
2023/03/31 04:48:00;;;;;;;;;0.33;0.33;;;;;22.92;39.35;99511.94;5076604;27;46160;-81
2023/03/31 04:50:25;;;;;;;;;0.00;0.00;;;;;22.82;39.63;99478.75;5076404;28;45718;-82
2023/03/31 04:52:50;;;;;;;;;0.00;0.00;;;;;22.85;39.34;99501.38;5076906;27;45368;-82
2023/03/31 04:55:16;;;;;;;;;1.33;1.00;;;;;22.90;39.19;99480.31;5076722;27;45314;-82
2023/03/31 04:57:41;;;;;;;;;1.00;1.00;;;;;22.91;39.84;99499.69;5076761;28;46944;-83
2023/03/31 05:00:07;;;;;;;;;2.00;1.67;;;;;22.85;39.25;99491.56;5076490;28;45396;-82
2023/03/31 05:02:33;;;;;;;;;0.33;0.33;;;;;22.91;39.24;99507.66;5076272;27;45419;-82
2023/03/31 05:04:59;;;;;;;;;0.00;0.00;;;;;22.90;39.24;99503.38;5076197;27;45425;-82
2023/03/31 05:07:25;;;;;;;;;4.00;0.50;;;;;22.90;39.32;99495.44;5076271;28;47114;-82
2023/03/31 05:09:50;;;;;;;;;0.00;0.00;;;;;22.81;39.16;99481.63;5076360;27;45434;-83
2023/03/31 05:12:15;;;;;;;;;0.00;0.00;;;;;22.84;39.73;99489.97;5076622;27;45248;-82
2023/03/31 05:14:41;;;;;;;;;1.67;0.67;;;;;22.83;39.63;99485.69;5076484;27;45290;-82
2023/03/31 05:17:06;;;;;;;;;0.00;0.00;;;;;22.89;39.73;99491.16;5076477;27;45342;-82
2023/03/31 05:19:31;;;;;;;;;0.00;0.00;;;;;22.84;39.16;99482.03;5074667;28;45464;-81
2023/03/31 05:21:57;;;;;;;;;0.00;0.00;;;;;22.89;39.34;99488.50;5076405;28;45354;-81
2023/03/31 05:24:22;;;;;;;;;1.33;0.00;;;;;22.90;39.62;99495.44;5076410;28;45446;-82
2023/03/31 05:26:51;;;;;;;;;1.67;1.00;;;;;22.83;39.20;99479.56;5076005;28;46014;-82
2023/03/31 05:29:17;;;;;;;;;0.67;0.67;;;;;22.90;39.12;99472.34;5076042;27;45266;-83
2023/03/31 05:31:43;;;;;;;;;0.00;0.00;;;;;22.81;39.54;99468.38;5076190;28;45241;-82
2023/03/31 05:34:08;;;;;;;;;0.00;0.00;;;;;22.91;39.10;99481.13;5075923;27;45217;-81
2023/03/31 05:36:34;;;;;;;;;4.00;1.00;;;;;22.91;39.39;99492.56;5075954;28;45406;-81
2023/03/31 05:38:59;;;;;;;;;1.00;1.00;;;;;22.89;39.40;99478.69;5076156;28;45488;-82
2023/03/31 05:41:25;;;;;;;;;0.67;0.67;;;;;22.93;39.16;99481.72;5076331;28;45397;-81
2023/03/31 05:43:50;;;;;;;;;1.00;0.00;;;;;22.93;39.45;99481.72;5076025;28;45319;-81
2023/03/31 05:46:17;;;;;;;;;0.00;0.00;;;;;22.93;39.03;99481.72;5075752;28;46120;-81
2023/03/31 05:48:43;;;;;;;;;1.00;0.67;;;;;22.81;39.56;99466.53;5075337;27;45395;-81
2023/03/31 05:51:09;;;;;;;;;1.33;1.00;;;;;22.80;39.18;99467.56;5075953;27;45354;-82
2023/03/31 05:53:34;;;;;;;;;0.33;0.00;;;;;22.73;39.36;99457.03;5075932;27;45345;-81
2023/03/31 05:56:02;;;;;;;;;3.00;0.67;;;;;22.92;39.11;99496.03;5074496;28;45962;-82
2023/03/31 05:58:28;;;;;;;;;0.00;0.00;;;;;22.82;39.33;99470.00;5075992;28;45333;-82
2023/03/31 06:01:21;;;;;;;;;0.67;0.00;;;;;22.91;39.34;99489.06;5075833;27;45486;-81
2023/03/31 06:03:47;;;;;;;;;1.67;0.00;;;;;22.88;39.41;99486.88;5075437;27;45233;-82
2023/03/31 06:06:13;;;;;;;;;1.00;1.00;;;;;22.81;39.62;99476.34;5075587;28;45241;-82
2023/03/31 06:08:40;;;;;;;;;0.67;0.67;;;;;22.82;39.53;99470.00;5075600;27;45239;-82
2023/03/31 06:11:15;;;;;;;;;1.00;1.00;;;;;22.81;39.58;99479.81;5075518;28;45291;-82
2023/03/31 06:13:40;;;;;;;;;4.00;1.00;;;;;22.66;39.36;99447.47;5075541;27;45377;-82
2023/03/31 06:16:08;;;;;;;;;1.00;1.00;;;;;22.80;39.54;99478.16;5078455;27;46093;-80
2023/03/31 06:18:34;;;;;;;;;2.00;1.00;;;;;22.88;39.05;99471.75;5079066;28;45380;-82
2023/03/31 06:21:00;;;;;;;;;1.00;1.00;;;;;22.89;39.49;99469.94;5079094;27;45391;-81
2023/03/31 06:23:25;;;;;;;;;1.00;0.00;;;;;22.84;38.91;99457.34;5079019;27;45381;-81
2023/03/31 06:25:53;;;;;;;;;2.00;2.00;;;;;22.88;39.11;99469.13;5078912;28;45390;-82
2023/03/31 06:28:20;;;;;;;;;2.00;1.00;;;;;22.88;38.97;99468.28;5078951;27;45500;-81
2023/03/31 06:30:45;;;;;;;;;1.00;1.00;;;;;22.83;39.51;99455.69;5078508;27;45278;-81
2023/03/31 06:33:12;;;;;;;;;1.00;1.00;;;;;22.81;39.58;99452.47;5079142;28;45474;-86
2023/03/31 06:35:38;;;;;;;;;1.33;1.33;;;;;22.87;38.90;99477.31;5079034;28;47272;-81
2023/03/31 06:38:03;;;;;;;;;1.67;1.00;;;;;22.89;38.88;99467.28;5078254;28;45421;-84
2023/03/31 06:40:29;;;;;;;;;1.00;0.00;;;;;22.89;39.10;99468.09;5077470;28;45470;-87
2023/03/31 06:42:54;;;;;;;;;0.00;0.00;;;;;22.89;39.09;99481.34;5078777;28;45379;-82
2023/03/31 06:45:20;;;;;;;;;3.00;0.00;;;;;22.90;39.00;99474.22;5078280;28;45888;-79
2023/03/31 06:47:45;;;;;;;;;0.00;0.00;;;;;22.90;39.39;99471.56;5078382;27;45508;-82
2023/03/31 06:50:11;;;;;;;;;2.33;0.33;;;;;22.90;39.16;99459.09;5078870;28;45661;-79
2023/03/31 06:52:36;;;;;;;;;5.67;1.00;;;;;22.92;39.47;99458.88;5078685;28;45413;-82
2023/03/31 06:55:02;;;;;;;;;0.67;0.33;;;;;22.91;39.61;99458.06;5078898;28;46596;-83
2023/03/31 06:57:30;;;;;;;;;0.00;0.00;;;;;22.93;39.18;99471.91;5078473;28;45409;-80
2023/03/31 06:59:55;;;;;;;;;1.00;1.00;;;;;22.93;38.86;99450.69;5078316;27;45374;-83
2023/03/31 07:02:21;;;;;;;;;0.00;0.00;;;;;22.85;39.72;99449.16;5075088;27;45328;-89
2023/03/31 07:04:46;;;;;;;;;2.33;0.67;;;;;22.92;39.71;99454.41;5074456;28;46235;-83
2023/03/31 07:07:11;;;;;;;;;1.67;0.33;;;;;22.93;39.73;99450.69;5075231;28;45401;-85
2023/03/31 07:09:37;;;;;;;;;0.00;0.00;;;;;22.94;39.83;99451.53;5077051;28;45344;-83
2023/03/31 07:12:04;;;;;;;;;0.00;0.00;;;;;22.95;39.74;99453.94;5077644;27;45591;-82
2023/03/31 07:14:30;;;;;;;;;4.00;2.00;;;;;22.68;39.09;99409.13;5077043;28;46472;-86
2023/03/31 07:16:55;;;;;;;;;0.00;0.00;;;;;22.92;39.29;99449.09;5076688;28;45378;-83
2023/03/31 07:19:20;;;;;;;;;2.00;1.00;;;;;22.88;39.69;99439.13;5077305;28;45450;-83
2023/03/31 07:21:46;;;;;;;;;0.67;0.00;;;;;22.97;39.76;99467.00;5077623;28;45298;-82
2023/03/31 07:24:11;;;;;;;;;3.00;0.67;;;;;22.89;39.41;99452.19;5076147;28;46976;-80
2023/03/31 07:26:36;;;;;;;;;2.00;0.00;;;;;22.95;39.93;99450.50;5077792;27;45248;-81
2023/03/31 07:29:02;;;;;;;;;1.67;1.00;;;;;22.98;39.31;99459.84;5077504;28;45302;-81
2023/03/31 07:31:27;;;;;;;;;0.67;0.67;;;;;22.98;39.81;99450.03;5072899;28;45324;-79
2023/03/31 07:33:53;;;;;;;;;1.00;0.67;;;;;23.00;39.70;99457.78;5057178;28;46087;-75
2023/03/31 07:36:18;;;;;;;;;0.00;0.00;;;;;22.93;39.79;99440.09;5057193;28;45360;-80
2023/03/31 07:38:47;;;;;;;;;1.67;1.00;;;;;23.01;39.77;99454.91;5057581;28;45212;-86
2023/03/31 07:41:15;;;;;;;;;1.00;1.00;;;;;23.01;39.39;99452.25;5063190;28;45422;-80
2023/03/31 07:43:41;;;;;;;;;4.33;0.67;;;;;23.01;39.41;99446.94;5077079;27;47325;-79
2023/03/31 07:46:16;;;;;;;;;2.33;1.00;;;;;23.02;39.56;99453.06;5077112;27;45429;-79
2023/03/31 07:48:42;;;;;;;;;0.00;0.00;;;;;22.91;39.38;99434.22;5077409;27;45358;-79
2023/03/31 07:51:08;;;;;;;;;0.67;0.00;;;;;23.01;39.72;99462.03;5076631;27;45208;-79
2023/03/31 07:53:33;;;;;;;;;1.00;1.00;;;;;23.01;39.70;99465.50;5074374;28;46005;-79
2023/03/31 07:55:59;;;;;;;;;1.00;0.33;;;;;22.98;39.81;99468.59;5076900;27;45282;-78
2023/03/31 07:58:24;;;;;;;;;1.67;1.67;;;;;23.00;39.31;99453.31;5076541;27;45280;-79
2023/03/31 08:00:50;;;;;;;;;0.33;0.00;;;;;22.99;39.60;99456.97;5077256;28;45459;-79
2023/03/31 08:03:15;;;;;;;;;2.00;1.00;;;;;23.00;39.30;99452.47;5076924;27;47095;-79
2023/03/31 08:05:40;;;;;;;;;0.33;0.33;;;;;23.00;39.43;99463.91;5077099;28;45205;-79
2023/03/31 08:08:06;;;;;;;;;0.00;0.00;;;;;23.02;39.62;99453.88;5077192;28;45390;-79
2023/03/31 08:10:31;;;;;;;;;0.00;0.00;;;;;23.03;39.51;99446.75;5077430;28;45212;-79
2023/03/31 08:12:56;;;;;;;;;3.33;1.00;;;;;23.03;39.69;99452.84;5076362;28;47312;-80
2023/03/31 08:15:22;;;;;;;;;3.00;0.33;;;;;23.04;39.34;99449.16;5077042;28;45405;-79
2023/03/31 08:17:48;;;;;;;;;0.67;0.67;;;;;23.01;39.29;99444.28;5077233;28;45311;-79
2023/03/31 08:20:13;;;;;;;;;1.67;0.00;;;;;23.06;38.98;99440.97;5076861;28;45438;-79
2023/03/31 08:22:39;;;;;;;;;0.33;0.33;;;;;23.14;38.91;99455.78;5076903;28;45484;-79
2023/03/31 08:25:07;;;;;;;;;1.00;1.00;;;;;23.16;39.31;99437.81;5076758;28;45496;-79
2023/03/31 08:27:37;;;;;;;;;2.00;1.33;;;;;23.17;38.93;99452.69;5076725;28;45438;-79
2023/03/31 08:30:04;;;;;;;;;1.00;0.67;;;;;23.18;38.79;99444.53;5076103;28;45524;-80
2023/03/31 08:32:31;;;;;;;;;2.00;0.00;;;;;23.18;38.78;99431.25;5075773;27;46356;-79
2023/03/31 08:34:56;;;;;;;;;0.00;0.00;;;;;23.18;38.81;99428.59;5075829;27;45492;-79
2023/03/31 08:37:22;;;;;;;;;0.00;0.00;;;;;23.15;38.73;99430.88;5075360;27;45379;-80
2023/03/31 08:39:47;;;;;;;;;1.67;1.33;;;;;23.18;38.57;99446.38;5075924;27;45440;-79
2023/03/31 08:42:17;;;;;;;;;0.00;0.00;;;;;23.20;38.74;99449.59;5075519;28;46223;-79
2023/03/31 08:45:01;;;;;;;;;1.00;1.00;;;;;23.20;38.27;99470.81;5075523;27;45386;-85
2023/03/31 08:47:29;;;;;;;;;0.00;0.00;;;;;23.19;38.76;99469.19;5075300;27;45255;-80
2023/03/31 08:49:59;;;;;;;;;4.67;1.00;;;;;23.19;38.95;99455.94;5051405;27;45545;-80
2023/03/31 08:52:36;;;;;;;;;1.00;0.00;;;;;23.18;39.14;99438.41;5063820;27;47008;-79
2023/03/31 08:55:06;;;;;;;;;2.00;1.00;;;;;23.17;39.36;99453.50;5068242;28;45455;-80
2023/03/31 08:57:51;;;;;;;;;0.00;0.00;;;;;23.19;38.96;99447.97;5070030;27;45646;-83
2023/03/31 09:00:17;;;;;;;;;5.00;0.00;;;;;23.21;38.67;99437.97;5072038;27;45565;-86
2023/03/31 09:02:51;;;;;;;;;2.33;0.67;;;;;23.20;38.60;99438.16;5071616;27;46224;-86
2023/03/31 09:05:35;;;;;;;;;1.00;1.00;;;;;23.19;38.81;99442.66;5071210;27;45523;-85
2023/03/31 09:08:16;;;;;;;;;0.67;0.00;;;;;23.17;38.51;99448.19;5070256;27;45566;-86
2023/03/31 09:10:49;;;;;;;;;3.00;0.00;;;;;23.18;39.18;99447.19;5071548;28;45410;-87
2023/03/31 09:13:17;;;;;;;;;0.00;0.00;;;;;23.16;38.78;99430.66;5067744;28;46182;-90
2023/03/31 09:15:54;;;;;;;;;0.67;0.67;;;;;23.16;39.20;99448.44;5071424;27;45619;-83
2023/03/31 09:18:30;;;;;;;;;1.33;1.00;;;;;23.11;39.07;99433.16;5070822;28;45506;-84
2023/03/31 09:21:13;;;;;;;;;2.67;0.00;;;;;23.17;39.07;99450.03;5070091;28;45907;-83
2023/03/31 09:23:52;;;;;;;;;1.33;1.00;;;;;23.15;38.93;99438.84;5070908;27;45680;-83
2023/03/31 09:26:40;;;;;;;;;1.00;0.00;;;;;23.17;38.86;99436.78;5070201;27;45508;-83
2023/03/31 09:29:17;;;;;;;;;1.00;1.00;;;;;23.05;38.93;99421.63;5071444;28;45505;-83
2023/03/31 09:31:43;;;;;;;;;0.67;0.00;;;;;23.15;39.00;99434.34;5071757;28;45561;-78
2023/03/31 09:34:32;;;;;;;;;2.00;1.00;;;;;23.15;39.00;99437.00;5070803;28;46913;-79
2023/03/31 09:36:57;;;;;;;;;2.00;1.00;;;;;23.09;39.37;99435.22;5070280;28;45367;-80
2023/03/31 09:39:22;;;;;;;;;1.00;1.00;;;;;23.03;39.15;99423.66;5070185;28;45361;-79
2023/03/31 09:41:50;;;;;;;;;0.33;0.00;;;;;23.06;38.71;99423.22;5070725;28;45540;-79
2023/03/31 09:44:34;;;;;;;;;1.33;0.00;;;;;23.15;39.01;99439.66;5070780;27;45447;-79
2023/03/31 09:47:02;;;;;;;;;1.00;1.00;;;;;23.13;38.84;99430.31;5069179;27;45606;-74
2023/03/31 09:49:32;;;;;;;;;0.00;0.00;;;;;23.14;39.38;99416.00;5071394;27;45801;-79
2023/03/31 09:52:05;;;;;;;;;1.00;1.00;;;;;23.13;39.26;99438.25;5070604;28;46464;-78
2023/03/31 09:54:35;;;;;;;;;1.00;0.00;;;;;23.14;38.88;99426.59;5072074;28;46108;-79
2023/03/31 09:57:02;;;;;;;;;1.67;1.00;;;;;23.13;38.97;99444.38;5074010;27;45359;-79
2023/03/31 09:59:34;;;;;;;;;1.33;0.00;;;;;23.14;38.74;99442.53;5073956;27;45434;-80
2023/03/31 10:02:23;;;;;;;;;0.00;0.00;;;;;23.14;39.43;99440.69;5074044;28;45390;-79
2023/03/31 10:04:49;;;;;;;;;0.00;0.00;;;;;23.14;38.80;99440.69;5071765;28;46672;-80
2023/03/31 10:07:20;;;;;;;;;0.00;0.00;;;;;23.14;39.28;99443.34;5073960;27;46433;-79
2023/03/31 10:09:45;;;;;;;;;2.67;1.00;;;;;23.11;38.89;99427.84;5073789;28;45345;-79
2023/03/31 10:12:19;;;;;;;;;2.00;0.00;;;;;23.15;38.78;99430.88;5074498;27;45402;-78
2023/03/31 10:14:47;;;;;;;;;1.00;0.67;;;;;23.14;39.35;99437.22;5070817;28;46138;-79
2023/03/31 10:17:16;;;;;;;;;1.00;1.00;;;;;23.15;39.35;99436.19;5074405;28;45439;-84
2023/03/31 10:19:50;;;;;;;;;0.33;0.33;;;;;23.14;38.81;99445.97;5074473;28;45474;-84
2023/03/31 10:22:30;;;;;;;;;0.00;0.00;;;;;23.14;39.18;99448.63;5072667;28;45444;-83
2023/03/31 10:25:15;;;;;;;;;0.00;0.00;;;;;23.14;38.80;99427.41;5073413;28;46115;-83
2023/03/31 10:27:43;;;;;;;;;1.00;0.00;;;;;23.14;38.88;99458.44;5073879;28;45429;-82
2023/03/31 10:30:11;;;;;;;;;0.00;0.00;;;;;23.15;39.11;99457.41;5073007;28;45406;-81
2023/03/31 10:32:41;;;;;;;;;1.33;0.00;;;;;23.13;38.96;99443.56;5074501;28;45371;-83
2023/03/31 10:35:35;;;;;;;;;3.00;0.00;;;;;23.14;38.84;99438.03;5073905;27;46547;-80
2023/03/31 10:38:10;;;;;;;;;2.00;0.67;;;;;23.14;39.13;99455.78;5067618;28;45413;-83
2023/03/31 10:40:36;;;;;;;;;0.00;0.00;;;;;23.14;39.14;99456.59;5073809;28;45493;-80
2023/03/31 10:43:15;;;;;;;;;3.67;0.33;;;;;23.14;39.64;99477.81;5073474;28;45788;-79
2023/03/31 10:45:47;;;;;;;;;0.00;0.00;;;;;23.15;39.11;99482.09;5070329;28;47044;-85
2023/03/31 10:48:22;;;;;;;;;2.00;0.33;;;;;23.15;39.66;99487.41;5074426;28;45857;-86
2023/03/31 10:50:47;;;;;;;;;0.67;0.00;;;;;23.17;39.43;99487.19;5072874;28;45728;-81
2023/03/31 10:53:14;;;;;;;;;0.00;0.00;;;;;23.11;39.17;99488.88;5073473;28;45406;-84
2023/03/31 10:56:37;;;;;;;;;2.00;0.00;;;;;23.19;39.33;99490.41;5073368;28;46253;-85
2023/03/31 10:59:11;;;;;;;;;6.33;0.00;;;;;23.19;39.46;99498.38;5049826;28;45848;-84
2023/03/31 11:01:49;;;;;;;;;0.00;0.00;;;;;23.18;39.61;99497.59;5049984;28;46504;-86
2023/03/31 11:04:45;;;;;;;;;1.00;0.00;;;;;23.18;39.60;99491.47;5034275;28;45388;-79
2023/03/31 11:07:28;;;;;;;;;0.00;0.00;;;;;23.17;39.39;99498.63;5050138;28;45761;-77
2023/03/31 11:10:18;;;;;;;;;0.00;0.00;;;;;23.18;39.24;99516.16;5049960;28;45362;-79
2023/03/31 11:13:10;;;;;;;;;0.67;0.67;;;;;23.18;39.89;99513.50;5050638;28;45489;-77
2023/03/31 11:15:49;;;;;;;;;0.00;0.00;;;;;23.20;39.89;99512.47;5033128;28;45798;-77
2023/03/31 11:18:31;;;;;;;;;0.00;0.00;;;;;23.20;39.44;99515.94;5050495;28;45398;-77
2023/03/31 11:21:03;;;;;;;;;0.33;0.33;;;;;23.22;39.53;99518.34;5048273;28;45907;-75
2023/03/31 11:23:52;;;;;;;;;0.00;0.00;;;;;23.15;39.53;99516.59;5049932;28;45919;-75
2023/03/31 11:26:32;;;;;;;;;1.00;0.00;;;;;23.22;39.21;99523.66;5049341;28;45635;-75
2023/03/31 11:29:15;;;;;;;;;1.67;0.00;;;;;23.22;39.29;99526.31;5055386;28;47015;-75
2023/03/31 11:32:17;;;;;;;;;0.00;0.00;;;;;23.22;39.58;99515.69;5073169;28;45754;-75
2023/03/31 11:35:20;;;;;;;;;2.50;0.00;;;;;23.15;40.03;99511.28;5073047;27;45501;-74
2023/03/31 11:38:10;;;;;;;;;1.00;0.00;;;;;23.16;39.94;99498.84;5068988;28;45512;-75
2023/03/31 11:40:38;;;;;;;;;0.00;0.00;;;;;23.23;40.07;99496.94;5071627;28;46975;-75
2023/03/31 11:43:15;;;;;;;;;0.33;0.00;;;;;23.16;39.85;99482.94;5071571;28;45707;-74
2023/03/31 11:45:48;;;;;;;;;1.00;0.00;;;;;23.18;40.02;99497.59;5072784;28;45551;-75
2023/03/31 11:48:44;;;;;;;;;0.00;0.00;;;;;23.21;39.88;99480.41;5068751;28;45485;-75
2023/03/31 11:51:28;;;;;;;;;0.00;0.00;;;;;23.18;40.01;99491.47;5048465;28;46374;-75
2023/03/31 11:53:58;;;;;;;;;0.33;0.33;;;;;23.24;39.58;99498.53;5032280;28;45854;-75